Time;durP1;ratioP1;P1;durP2;ratioP2;P2;SDS_P1;SDS_P2;PMS_P1;PMS_P2;Temp;Humidity;BMP_temperature;BMP_pressure;BME280_temperature;BME280_humidity;BME280_pressure;Samples;Min_cycle;Max_cycle;Signal;HPM_P1;HPM_P2
2022/06/05 00:01:19;;;;;;;14.80;6.72;;;24.80;99.90;;;;;;4971271;28;20074;-91
2022/06/05 00:04:03;;;;;;;16.65;6.43;;;24.70;99.90;;;;;;4911027;29;20408;-91
2022/06/05 00:06:57;;;;;;;16.70;6.72;;;24.70;99.90;;;;;;4939904;29;20033;-92
2022/06/05 00:09:42;;;;;;;14.57;6.03;;;24.70;99.90;;;;;;4952198;29;20027;-91
2022/06/05 00:12:15;;;;;;;14.57;5.75;;;24.80;99.90;;;;;;4960344;28;20461;-91
2022/06/05 00:14:41;;;;;;;14.68;5.97;;;24.70;99.90;;;;;;4959518;28;20031;-91
2022/06/05 00:17:13;;;;;;;15.00;6.20;;;24.80;99.90;;;;;;4958812;28;20039;-91
2022/06/05 00:19:42;;;;;;;16.67;6.30;;;24.70;99.90;;;;;;4959281;28;20015;-91
2022/06/05 00:22:08;;;;;;;16.73;6.13;;;24.70;99.90;;;;;;4958578;28;20055;-91
2022/06/05 00:24:35;;;;;;;13.85;6.05;;;24.80;99.90;;;;;;4956509;28;20518;-91
2022/06/05 00:27:05;;;;;;;13.05;6.40;;;24.70;99.90;;;;;;4942658;29;20035;-91
2022/06/05 00:29:40;;;;;;;15.20;6.28;;;24.80;99.90;;;;;;4942361;29;20019;-91
2022/06/05 00:32:47;;;;;;;12.95;6.15;;;24.80;99.90;;;;;;4958828;28;20089;-90
2022/06/05 00:35:16;;;;;;;11.30;5.68;;;24.90;99.90;;;;;;4891381;29;20047;-91
2022/06/05 00:37:51;;;;;;;13.43;6.10;;;24.70;99.90;;;;;;4876709;29;20053;-91
2022/06/05 00:40:28;;;;;;;15.73;5.97;;;24.70;99.90;;;;;;4869761;29;20055;-91
2022/06/05 00:42:56;;;;;;;15.82;6.45;;;24.50;99.90;;;;;;4881545;29;20532;-92
2022/06/05 00:45:22;;;;;;;14.02;6.07;;;24.50;99.90;;;;;;4893080;29;20057;-92
2022/06/05 00:47:48;;;;;;;17.27;6.88;;;24.60;99.90;;;;;;4891990;29;20548;-91
2022/06/05 00:50:24;;;;;;;17.55;6.47;;;24.50;99.90;;;;;;4880325;29;20048;-90
2022/06/05 00:52:56;;;;;;;14.52;7.05;;;24.40;99.90;;;;;;4895977;29;20052;-91
2022/06/05 00:55:23;;;;;;;17.83;6.38;;;24.30;99.90;;;;;;4880295;29;20045;-91
2022/06/05 00:57:49;;;;;;;12.57;6.05;;;24.20;99.90;;;;;;4880177;29;20028;-91
2022/06/05 01:00:19;;;;;;;14.77;6.32;;;24.20;99.90;;;;;;4895376;29;20064;-91
2022/06/05 01:02:49;;;;;;;17.17;6.80;;;24.20;99.90;;;;;;4891410;29;20028;-91
2022/06/05 01:05:16;;;;;;;14.48;6.50;;;24.40;99.90;;;;;;4890996;29;20607;-92
2022/06/05 01:07:42;;;;;;;14.60;6.45;;;24.50;99.90;;;;;;4876235;29;20037;-91
2022/06/05 01:10:09;;;;;;;13.20;6.03;;;24.50;99.90;;;;;;4883531;29;20047;-91
2022/06/05 01:12:47;;;;;;;13.00;6.38;;;24.50;99.90;;;;;;4927413;29;20090;-91
2022/06/05 01:15:16;;;;;;;17.23;6.78;;;24.50;99.90;;;;;;4965657;28;20027;-91
2022/06/05 01:18:07;;;;;;;12.15;6.10;;;24.50;99.90;;;;;;4969629;28;20046;-91
2022/06/05 01:20:35;;;;;;;15.68;7.15;;;24.50;99.90;;;;;;4929393;29;20066;-91
2022/06/05 01:23:10;;;;;;;19.85;6.68;;;24.60;99.90;;;;;;4963777;28;20058;-91
2022/06/05 01:25:48;;;;;;;18.95;7.15;;;24.70;99.90;;;;;;4969194;28;20027;-91
2022/06/05 01:28:20;;;;;;;14.63;6.55;;;24.70;99.90;;;;;;4965544;28;20110;-91
2022/06/05 01:31:00;;;;;;;15.75;5.53;;;24.50;99.90;;;;;;4939098;29;20019;-91
2022/06/05 01:33:28;;;;;;;10.75;4.57;;;24.50;99.90;;;;;;4956495;28;20027;-91
2022/06/05 01:36:13;;;;;;;8.60;3.38;;;24.30;99.90;;;;;;4958391;28;20039;-92
2022/06/05 01:38:53;;;;;;;6.97;3.30;;;24.20;99.90;;;;;;4964617;28;20043;-91
2022/06/05 01:41:30;;;;;;;8.98;2.85;;;24.20;99.90;;;;;;4960670;28;20132;-91
2022/06/05 01:43:59;;;;;;;7.03;3.13;;;24.20;99.90;;;;;;4941080;29;20118;-91
2022/06/05 01:46:37;;;;;;;6.13;2.35;;;24.20;99.90;;;;;;4957755;28;20019;-91
2022/06/05 01:49:21;;;;;;;4.57;2.20;;;24.10;99.90;;;;;;4956065;28;20255;-91
2022/06/05 01:51:55;;;;;;;3.47;1.70;;;23.90;99.90;;;;;;4922149;28;20050;-91
2022/06/05 01:54:29;;;;;;;4.25;1.58;;;23.90;99.90;;;;;;4939690;29;20036;-91
2022/06/05 01:56:58;;;;;;;3.83;1.70;;;23.80;99.90;;;;;;4956374;28;20031;-91
2022/06/05 01:59:46;;;;;;;3.95;1.55;;;23.80;99.90;;;;;;4940777;29;20027;-91
2022/06/05 02:02:19;;;;;;;3.92;1.65;;;23.80;99.90;;;;;;4965449;28;20034;-92
2022/06/05 02:04:52;;;;;;;5.50;2.03;;;23.90;99.90;;;;;;4965180;28;20039;-92
2022/06/05 02:07:36;;;;;;;4.97;1.70;;;23.80;99.90;;;;;;4953836;28;20027;-91
2022/06/05 02:10:10;;;;;;;3.28;1.40;;;23.80;99.90;;;;;;4951583;28;20023;-90
2022/06/05 02:12:37;;;;;;;4.43;1.60;;;23.80;99.90;;;;;;4954396;28;20347;-91
2022/06/05 02:15:03;;;;;;;5.50;2.17;;;23.70;99.90;;;;;;4958485;28;20031;-91
2022/06/05 02:17:30;;;;;;;5.30;1.80;;;23.50;99.90;;;;;;4946337;28;20043;-91
2022/06/05 02:19:59;;;;;;;5.65;1.77;;;23.50;99.90;;;;;;4967427;28;20027;-91
2022/06/05 02:22:30;;;;;;;4.40;1.60;;;23.60;99.90;;;;;;4944487;28;20495;-91
2022/06/05 02:24:56;;;;;;;5.25;1.40;;;23.60;99.90;;;;;;4941250;28;20377;-92
2022/06/05 02:27:23;;;;;;;3.05;1.20;;;23.60;99.90;;;;;;4942752;29;20038;-91
2022/06/05 02:29:50;;;;;;;4.00;1.40;;;23.50;99.90;;;;;;4944504;29;20031;-91
2022/06/05 02:32:48;;;;;;;2.75;1.13;;;23.60;99.90;;;;;;4947806;28;20492;-91
2022/06/05 02:35:41;;;;;;;3.33;1.20;;;23.50;99.90;;;;;;4964928;28;20043;-91
2022/06/05 02:38:13;;;;;;;4.43;1.23;;;23.40;99.90;;;;;;4961412;28;20393;-91
2022/06/05 02:41:04;;;;;;;2.15;1.23;;;23.50;99.90;;;;;;4960767;28;20035;-92
2022/06/05 02:46:47;;;;;;;4.95;1.30;;;23.50;99.90;;;;;;4969655;28;20049;-91
2022/06/05 02:49:40;;;;;;;2.35;1.10;;;23.40;99.90;;;;;;4956951;28;20023;-91
2022/06/05 02:52:07;;;;;;;2.60;1.20;;;23.20;99.90;;;;;;4946738;28;20046;-91
2022/06/05 02:54:41;;;;;;;3.42;1.55;;;23.30;99.90;;;;;;4940988;29;20114;-91
2022/06/05 02:57:07;;;;;;;5.97;1.70;;;23.20;99.90;;;;;;4961056;28;20038;-91
2022/06/05 02:59:33;;;;;;;3.42;1.63;;;23.10;99.90;;;;;;4960812;28;20031;-91
2022/06/05 03:04:43;;;;;;;8.02;2.13;;;23.00;99.90;;;;;;4961457;28;20300;-91
2022/06/05 03:07:08;;;;;;;5.45;2.35;;;22.90;99.90;;;;;;4959419;28;20039;-91
2022/06/05 03:09:35;;;;;;;5.90;2.33;;;22.80;99.90;;;;;;4940768;29;20062;-91
2022/06/05 03:12:01;;;;;;;5.78;2.47;;;22.80;99.90;;;;;;4961197;28;20031;-91
2022/06/05 03:14:27;;;;;;;4.63;2.55;;;22.80;99.90;;;;;;4960317;28;20039;-91
2022/06/05 03:16:53;;;;;;;6.45;2.75;;;22.80;99.90;;;;;;4960681;28;20070;-92
2022/06/05 03:19:19;;;;;;;6.80;2.17;;;22.80;99.90;;;;;;4960774;28;20029;-91
2022/06/05 03:21:44;;;;;;;5.13;2.00;;;22.60;99.90;;;;;;4954494;29;20106;-91
2022/06/05 03:24:10;;;;;;;5.30;2.08;;;22.60;99.90;;;;;;4975833;28;20027;-91
2022/06/05 03:26:36;;;;;;;3.63;2.08;;;22.60;99.90;;;;;;4943804;29;20046;-91
2022/06/05 03:29:03;;;;;;;3.95;1.90;;;22.60;99.90;;;;;;4961562;28;20512;-90
2022/06/05 03:31:29;;;;;;;4.50;2.08;;;22.60;99.90;;;;;;4952630;28;20088;-91
2022/06/05 03:33:55;;;;;;;3.42;1.80;;;22.50;99.90;;;;;;4957320;28;20095;-91
2022/06/05 03:36:21;;;;;;;4.68;1.98;;;22.50;99.90;;;;;;4959206;28;20039;-90
2022/06/05 03:38:47;;;;;;;3.10;1.73;;;22.60;99.90;;;;;;4955103;29;20023;-91
2022/06/05 03:41:16;;;;;;;3.88;1.90;;;22.70;99.90;;;;;;4960436;28;20154;-91
2022/06/05 03:43:42;;;;;;;3.20;1.60;;;22.70;99.90;;;;;;4959851;28;20047;-91
2022/06/05 03:46:10;;;;;;;2.47;1.45;;;22.70;99.90;;;;;;4941322;28;20035;-91
2022/06/05 03:48:37;;;;;;;5.00;1.50;;;22.60;99.90;;;;;;4956901;28;20031;-91
2022/06/05 03:51:12;;;;;;;3.05;1.35;;;22.60;99.90;;;;;;4960552;28;20548;-91
2022/06/05 03:53:38;;;;;;;3.90;1.60;;;22.60;99.90;;;;;;4970231;28;20039;-91
2022/06/05 03:56:09;;;;;;;3.78;1.50;;;22.60;99.90;;;;;;4964473;28;20023;-91
2022/06/05 03:58:35;;;;;;;2.67;1.50;;;22.60;99.90;;;;;;4942721;28;20035;-90
2022/06/05 04:01:00;;;;;;;2.40;1.55;;;22.60;99.90;;;;;;4940771;28;20050;-91
2022/06/05 04:03:26;;;;;;;2.50;1.50;;;22.50;99.90;;;;;;4940805;29;20065;-91
2022/06/05 04:05:52;;;;;;;2.17;1.60;;;22.40;99.90;;;;;;4943030;29;20031;-91
2022/06/05 04:08:17;;;;;;;4.45;1.63;;;22.20;99.90;;;;;;4959272;28;20053;-91
2022/06/05 04:10:43;;;;;;;3.47;1.48;;;22.10;99.90;;;;;;4942968;29;20114;-91
2022/06/05 04:13:09;;;;;;;2.72;1.85;;;22.00;99.90;;;;;;4958472;28;20504;-91
2022/06/05 04:15:41;;;;;;;3.05;1.40;;;22.20;99.90;;;;;;4956483;28;20039;-91
2022/06/05 04:18:08;;;;;;;3.20;1.73;;;22.10;99.90;;;;;;4954782;29;20055;-91
2022/06/05 04:20:37;;;;;;;2.47;1.50;;;22.00;99.90;;;;;;4959303;28;20055;-91
2022/06/05 04:23:04;;;;;;;3.22;1.60;;;21.90;99.90;;;;;;4958764;28;20054;-91
2022/06/05 04:25:29;;;;;;;3.70;1.77;;;21.90;99.90;;;;;;4959326;28;20023;-91
2022/06/05 04:27:56;;;;;;;3.53;1.80;;;21.90;99.90;;;;;;4939311;28;20050;-91
2022/06/05 04:30:23;;;;;;;3.55;1.60;;;21.90;99.90;;;;;;4957891;28;20554;-91
2022/06/05 04:32:49;;;;;;;4.18;1.75;;;22.00;99.90;;;;;;4942625;29;20118;-90
2022/06/05 04:35:14;;;;;;;3.67;1.67;;;22.10;99.90;;;;;;4942544;29;20178;-91
2022/06/05 04:37:40;;;;;;;3.97;1.70;;;22.00;99.90;;;;;;4957000;28;20039;-91
2022/06/05 04:40:06;;;;;;;3.15;1.58;;;22.00;99.90;;;;;;4970033;28;20058;-91
2022/06/05 04:42:32;;;;;;;4.03;1.58;;;22.00;99.90;;;;;;4938703;28;20030;-91
2022/06/05 04:44:58;;;;;;;2.10;1.30;;;22.00;99.90;;;;;;4959639;28;20392;-91
2022/06/05 04:47:24;;;;;;;5.47;1.50;;;22.20;99.90;;;;;;4941667;29;20051;-91
2022/06/05 04:49:49;;;;;;;2.13;1.60;;;22.50;99.90;;;;;;4953469;29;20102;-91
2022/06/05 04:52:15;;;;;;;3.75;1.77;;;22.70;99.90;;;;;;4941091;28;20069;-91
2022/06/05 04:54:41;;;;;;;3.45;1.50;;;22.80;99.90;;;;;;4938059;29;20038;-91
2022/06/05 04:57:06;;;;;;;2.28;1.45;;;22.90;99.90;;;;;;4959186;28;20035;-90
2022/06/05 04:59:32;;;;;;;2.97;1.55;;;22.90;99.90;;;;;;4941217;29;20035;-91
2022/06/05 05:01:58;;;;;;;1.92;1.33;;;22.90;99.90;;;;;;4941759;29;20082;-91
2022/06/05 05:04:23;;;;;;;4.97;1.80;;;22.70;99.90;;;;;;4959120;28;20035;-90
2022/06/05 05:06:49;;;;;;;2.95;1.50;;;22.60;99.90;;;;;;4969551;28;20027;-91
2022/06/05 05:09:15;;;;;;;2.70;1.50;;;22.50;99.90;;;;;;4958742;28;20031;-91
2022/06/05 05:11:41;;;;;;;2.38;1.42;;;22.50;99.90;;;;;;4958468;28;20058;-91
2022/06/05 05:14:06;;;;;;;3.25;1.77;;;22.30;99.90;;;;;;4959057;28;20031;-91
2022/06/05 05:16:33;;;;;;;2.80;1.55;;;22.10;99.90;;;;;;4938892;28;20101;-90
2022/06/05 05:18:58;;;;;;;3.22;1.40;;;22.20;99.90;;;;;;4950576;28;20028;-91
2022/06/05 05:21:25;;;;;;;3.10;1.40;;;22.20;99.90;;;;;;4939736;28;20038;-91
2022/06/05 05:23:51;;;;;;;2.42;1.20;;;22.20;99.90;;;;;;4952775;29;20050;-91
2022/06/05 05:26:28;;;;;;;2.72;1.17;;;22.30;99.90;;;;;;4955108;29;20031;-91
2022/06/05 05:28:54;;;;;;;3.78;1.40;;;22.40;99.90;;;;;;4941543;28;20030;-90
2022/06/05 05:31:26;;;;;;;3.53;1.40;;;22.50;99.90;;;;;;4968932;28;20023;-92
2022/06/05 05:33:53;;;;;;;2.28;1.50;;;22.60;99.90;;;;;;4954776;28;20027;-91
2022/06/05 05:36:21;;;;;;;4.80;1.27;;;22.50;99.90;;;;;;4956962;28;20035;-91
2022/06/05 05:44:17;;;;;;;3.13;1.42;;;22.70;99.90;;;;;;4958386;28;20093;-91
2022/06/05 05:46:43;;;;;;;3.80;1.73;;;23.00;99.90;;;;;;4958072;28;20476;-91
2022/06/05 05:49:18;;;;;;;4.20;1.40;;;23.20;99.90;;;;;;4938882;28;20025;-91
2022/06/05 05:51:44;;;;;;;1.40;1.30;;;23.50;99.90;;;;;;4939014;29;20019;-90
2022/06/05 05:54:10;;;;;;;3.55;1.58;;;23.60;99.90;;;;;;4972838;28;20034;-91
2022/06/05 05:56:38;;;;;;;3.08;1.50;;;23.70;99.90;;;;;;4962172;28;20093;-89
2022/06/05 05:59:04;;;;;;;4.57;1.80;;;23.80;99.90;;;;;;4961172;28;20035;-90
2022/06/05 06:01:30;;;;;;;5.20;1.45;;;23.90;99.90;;;;;;4961467;28;20029;-89
2022/06/05 06:03:56;;;;;;;2.65;1.60;;;24.00;99.90;;;;;;4958675;28;20480;-89
2022/06/05 06:06:42;;;;;;;2.85;1.70;;;23.80;99.90;;;;;;4960513;28;20031;-90
2022/06/05 06:09:08;;;;;;;6.60;1.58;;;23.30;99.90;;;;;;4959891;28;20148;-90
2022/06/05 06:11:34;;;;;;;7.93;1.70;;;23.10;99.90;;;;;;4954497;29;20070;-89
2022/06/05 06:13:59;;;;;;;2.75;1.48;;;23.20;99.90;;;;;;4957763;28;20195;-91
2022/06/05 06:16:26;;;;;;;4.60;1.63;;;23.30;99.90;;;;;;4960735;28;20039;-90
2022/06/05 06:18:53;;;;;;;4.03;1.90;;;23.40;99.90;;;;;;4955872;28;20070;-90
2022/06/05 06:21:19;;;;;;;3.15;1.90;;;23.40;99.90;;;;;;4959992;28;20035;-90
2022/06/05 06:23:45;;;;;;;3.75;1.77;;;23.30;99.90;;;;;;4960485;28;20481;-90
2022/06/05 06:26:11;;;;;;;3.50;1.70;;;23.20;99.90;;;;;;4943137;29;20019;-90
2022/06/05 06:28:37;;;;;;;3.47;1.70;;;23.10;99.90;;;;;;4944209;28;20030;-90
2022/06/05 06:31:08;;;;;;;4.97;1.73;;;23.10;99.90;;;;;;4952436;28;20027;-90
2022/06/05 06:33:35;;;;;;;3.85;1.80;;;22.90;99.90;;;;;;4956765;28;20055;-90
2022/06/05 06:36:05;;;;;;;3.28;1.85;;;22.90;99.90;;;;;;4941905;29;20098;-91
2022/06/05 06:38:32;;;;;;;2.22;1.52;;;22.80;99.90;;;;;;4960463;28;20046;-94
2022/06/05 06:41:10;;;;;;;3.78;2.08;;;22.50;99.90;;;;;;4963185;28;20384;-93
2022/06/05 06:43:36;;;;;;;5.50;1.88;;;22.50;99.90;;;;;;4968269;28;20042;-93
2022/06/05 06:46:03;;;;;;;3.92;2.00;;;22.40;99.90;;;;;;4973366;28;20038;-92
2022/06/05 06:48:30;;;;;;;4.55;1.83;;;22.40;99.90;;;;;;4943328;29;20421;-92
2022/06/05 06:50:58;;;;;;;4.85;1.65;;;22.50;99.90;;;;;;4960301;28;20485;-92
2022/06/05 06:53:24;;;;;;;5.40;1.75;;;22.70;99.90;;;;;;4952176;28;20113;-91
2022/06/05 06:55:51;;;;;;;4.20;1.90;;;22.70;99.90;;;;;;4950798;29;20034;-89
2022/06/05 06:58:17;;;;;;;2.88;1.88;;;22.70;99.90;;;;;;4942206;28;20452;-93
2022/06/05 07:00:43;;;;;;;3.55;2.13;;;22.70;99.90;;;;;;4955197;29;20039;-90
2022/06/05 07:03:09;;;;;;;4.57;2.60;;;22.40;99.90;;;;;;4961051;28;20098;-87
2022/06/05 07:05:35;;;;;;;8.00;2.95;;;21.80;99.90;;;;;;4957279;28;20090;-89
2022/06/05 07:08:01;;;;;;;5.68;2.65;;;21.70;99.90;;;;;;4958670;28;20065;-89
2022/06/05 07:10:27;;;;;;;6.35;2.70;;;21.80;99.90;;;;;;4954611;29;20499;-89
2022/06/05 07:12:52;;;;;;;6.60;2.85;;;21.80;99.90;;;;;;4955253;28;20019;-88
2022/06/05 07:15:19;;;;;;;5.90;2.80;;;21.70;99.90;;;;;;4959794;28;20499;-85
2022/06/05 07:17:45;;;;;;;5.70;2.58;;;21.80;99.90;;;;;;4959303;28;20120;-87
2022/06/05 07:20:11;;;;;;;5.53;2.53;;;21.70;99.90;;;;;;4959399;28;20484;-87
2022/06/05 07:22:37;;;;;;;7.15;2.47;;;21.70;99.90;;;;;;4941889;28;20051;-87
2022/06/05 07:25:03;;;;;;;4.63;2.78;;;21.80;99.90;;;;;;4940600;28;20078;-86
2022/06/05 07:27:29;;;;;;;5.70;2.65;;;22.20;99.90;;;;;;4940997;29;20041;-89
2022/06/05 07:29:55;;;;;;;5.97;2.40;;;22.50;99.90;;;;;;4960821;28;20023;-91
2022/06/05 07:32:21;;;;;;;5.30;2.40;;;22.70;99.90;;;;;;4948811;28;20488;-90
2022/06/05 07:34:47;;;;;;;6.55;2.33;;;22.90;99.90;;;;;;4967722;28;20488;-88
2022/06/05 07:37:16;;;;;;;4.03;2.42;;;22.70;99.90;;;;;;4941315;28;20035;-88
2022/06/05 07:39:42;;;;;;;3.30;1.95;;;22.90;99.90;;;;;;4955528;28;20027;-87
2022/06/05 07:42:09;;;;;;;5.38;2.58;;;22.90;99.90;;;;;;4960718;28;20110;-93
2022/06/05 07:44:38;;;;;;;4.28;2.30;;;22.40;99.90;;;;;;4959703;28;20496;-88
2022/06/05 07:47:05;;;;;;;3.97;2.25;;;21.70;99.90;;;;;;4959948;28;20035;-91
2022/06/05 07:49:31;;;;;;;3.33;2.50;;;21.20;99.90;;;;;;4960250;28;20023;-88
2022/06/05 07:54:40;;;;;;;7.20;2.70;;;20.90;1.00;;;;;;4955613;28;20070;-88
2022/06/05 07:57:09;;;;;;;4.63;2.92;;;21.10;99.90;;;;;;4959234;28;20396;-88
2022/06/05 07:59:40;;;;;;;5.15;2.67;;;21.20;99.90;;;;;;4955151;29;20028;-88
2022/06/05 08:02:13;;;;;;;4.70;3.20;;;21.30;99.90;;;;;;4955074;28;20445;-91
2022/06/05 08:04:40;;;;;;;7.30;3.00;;;21.20;99.90;;;;;;4963002;28;20049;-92
2022/06/05 08:07:08;;;;;;;8.32;3.30;;;21.20;99.90;;;;;;4954261;28;20031;-93
2022/06/05 08:09:34;;;;;;;6.82;3.50;;;21.30;99.90;;;;;;4957947;28;20035;-92
2022/06/05 08:12:00;;;;;;;6.15;3.05;;;21.20;99.90;;;;;;4955823;29;20019;-92
2022/06/05 08:14:26;;;;;;;6.75;3.03;;;20.90;99.90;;;;;;4952117;28;20093;-91
2022/06/05 08:16:52;;;;;;;6.75;3.78;;;20.60;99.90;;;;;;4966678;28;20039;-91
2022/06/05 08:19:21;;;;;;;7.82;3.75;;;20.60;99.90;;;;;;4960081;28;20037;-92
2022/06/05 08:21:47;;;;;;;6.07;3.55;;;20.70;99.90;;;;;;4939537;29;20043;-92
2022/06/05 08:24:13;;;;;;;7.63;3.60;;;21.00;99.90;;;;;;4960924;28;20148;-91
2022/06/05 08:26:39;;;;;;;8.70;3.90;;;21.10;99.90;;;;;;4960284;28;20041;-91
2022/06/05 08:29:05;;;;;;;5.80;3.35;;;21.10;99.90;;;;;;4960031;28;20030;-92
2022/06/05 08:31:32;;;;;;;7.35;3.80;;;21.10;99.90;;;;;;4942940;28;20441;-92
2022/06/05 08:33:58;;;;;;;5.50;3.80;;;21.60;99.90;;;;;;4958383;28;20034;-92
2022/06/05 08:36:25;;;;;;;5.50;3.42;;;22.10;99.90;;;;;;4959759;28;20043;-90
2022/06/05 08:41:42;;;;;;;5.47;2.88;;;23.50;99.90;;;;;;4960555;28;20049;-92
2022/06/05 08:44:31;;;;;;;4.40;2.97;;;23.20;99.90;;;;;;4959431;28;20041;-92
2022/06/05 08:47:03;;;;;;;5.00;3.47;;;22.70;99.90;;;;;;4959811;28;20031;-93
2022/06/05 08:49:53;;;;;;;7.97;3.28;;;23.10;99.90;;;;;;4942729;28;20049;-92
2022/06/05 08:53:03;;;;;;;3.88;3.10;;;23.30;99.90;;;;;;4942526;28;20066;-92
2022/06/05 08:55:41;;;;;;;4.97;2.30;;;23.40;99.90;;;;;;4869232;29;20081;-91
2022/06/05 08:58:12;;;;;;;6.60;2.38;;;23.60;99.90;;;;;;4877583;29;20550;-91
2022/06/05 09:01:00;;;;;;;6.25;2.75;;;23.60;99.90;;;;;;4861992;29;20119;-92
2022/06/05 09:03:45;;;;;;;4.97;3.10;;;23.90;99.90;;;;;;4860654;29;20529;-91
2022/06/05 09:06:36;;;;;;;3.63;2.80;;;23.90;99.90;;;;;;4878519;29;20534;-91
2022/06/05 09:09:06;;;;;;;5.25;2.40;;;24.10;99.90;;;;;;4877139;29;20516;-91
2022/06/05 09:11:38;;;;;;;3.05;2.70;;;24.80;99.90;;;;;;4877093;29;20050;-91
2022/06/05 09:14:37;;;;;;;5.30;2.97;;;24.70;99.90;;;;;;4859111;29;20033;-91
2022/06/05 09:17:11;;;;;;;5.95;2.67;;;25.80;99.90;;;;;;4871861;29;20036;-91
2022/06/05 09:19:37;;;;;;;4.35;2.53;;;25.80;99.90;;;;;;4877124;29;20032;-91
2022/06/05 09:22:42;;;;;;;3.67;2.53;;;26.20;99.90;;;;;;4877038;29;20255;-91
2022/06/05 09:25:12;;;;;;;5.15;2.30;;;25.30;99.90;;;;;;4865168;29;20453;-91
2022/06/05 09:27:58;;;;;;;2.15;1.70;;;25.10;99.90;;;;;;4876476;29;20033;-92
2022/06/05 09:30:46;;;;;;;4.07;1.98;;;25.00;99.90;;;;;;4891897;29;20467;-92
2022/06/05 09:33:30;;;;;;;3.35;1.92;;;25.10;99.90;;;;;;4966309;28;20490;-92
2022/06/05 09:36:00;;;;;;;5.55;2.70;;;25.40;99.90;;;;;;4940225;29;20123;-91
2022/06/05 09:38:36;;;;;;;5.10;2.60;;;25.50;99.90;;;;;;4958888;28;20027;-91
2022/06/05 09:41:10;;;;;;;4.65;2.40;;;24.80;99.90;;;;;;4943391;28;20097;-91
2022/06/05 09:43:52;;;;;;;6.35;2.63;;;25.00;99.90;;;;;;4967178;28;20039;-92
2022/06/05 09:46:40;;;;;;;6.28;2.35;;;25.00;99.90;;;;;;4954844;29;20106;-92
2022/06/05 09:49:22;;;;;;;3.90;1.90;;;25.00;99.90;;;;;;4945019;28;20039;-92
2022/06/05 09:51:48;;;;;;;3.95;1.80;;;24.80;99.90;;;;;;4940223;28;20033;-92
2022/06/05 09:54:32;;;;;;;4.28;2.17;;;24.90;99.90;;;;;;4959723;28;20054;-92
2022/06/05 10:00:26;;;;;;;5.85;2.17;;;25.20;99.90;;;;;;4959543;28;20046;-92
2022/06/05 10:03:23;;;;;;;6.72;2.05;;;25.60;99.90;;;;;;4958426;28;20511;-92
2022/06/05 10:06:17;;;;;;;3.10;2.10;;;25.00;99.90;;;;;;4962918;28;20130;-92
2022/06/05 10:09:06;;;;;;;3.42;2.03;;;25.30;99.90;;;;;;4959044;28;20094;-92
2022/06/05 10:12:11;;;;;;;3.60;2.22;;;25.60;99.90;;;;;;4936130;29;20067;-92
2022/06/05 10:14:50;;;;;;;5.05;2.08;;;25.80;99.90;;;;;;4952234;28;20073;-92
2022/06/05 10:17:21;;;;;;;4.45;2.28;;;26.00;99.90;;;;;;4953617;28;20064;-92
2022/06/05 10:20:08;;;;;;;4.03;1.90;;;26.00;99.90;;;;;;4966141;28;20142;-92
2022/06/05 10:22:43;;;;;;;5.20;2.00;;;26.20;99.90;;;;;;4941429;28;20508;-92
2022/06/05 10:25:29;;;;;;;6.07;2.30;;;26.10;99.90;;;;;;4940363;28;20027;-92
2022/06/05 10:28:18;;;;;;;2.83;1.90;;;26.00;99.90;;;;;;5089122;28;20381;-92
2022/06/05 10:31:22;;;;;;;5.75;2.15;;;26.00;99.90;;;;;;5070701;28;20051;-92
2022/06/05 10:33:56;;;;;;;4.07;1.90;;;26.20;99.90;;;;;;5105791;28;20516;-92
2022/06/05 10:36:46;;;;;;;2.28;2.05;;;26.20;99.90;;;;;;5088999;28;20119;-92
2022/06/05 10:39:23;;;;;;;2.63;1.75;;;26.10;99.90;;;;;;5085891;28;20408;-92
2022/06/05 10:41:52;;;;;;;4.63;1.67;;;26.50;99.90;;;;;;5089980;28;20021;-92
2022/06/05 10:44:21;;;;;;;4.43;1.50;;;26.80;99.90;;;;;;5085792;28;20103;-92
2022/06/05 10:47:10;;;;;;;4.10;1.80;;;27.00;99.90;;;;;;5088442;28;20221;-92
2022/06/05 10:49:45;;;;;;;5.32;1.75;;;27.30;99.90;;;;;;5088696;28;20024;-92
2022/06/05 10:52:34;;;;;;;5.78;2.70;;;27.80;99.90;;;;;;5087503;28;20028;-93
2022/06/05 10:55:26;;;;;;;10.40;9.13;;;28.20;99.90;;;;;;5071341;28;20032;-93
2022/06/05 10:58:25;;;;;;;6.00;4.10;;;28.10;99.90;;;;;;5072278;28;20021;-92
2022/06/05 11:00:50;;;;;;;4.95;1.70;;;28.40;99.90;;;;;;5107083;28;20054;-92
2022/06/05 11:03:44;;;;;;;2.97;1.60;;;28.80;99.90;;;;;;5090268;28;20489;-92
2022/06/05 11:06:18;;;;;;;5.00;3.83;;;29.10;99.90;;;;;;5088888;28;20039;-93
2022/06/05 11:08:55;;;;;;;4.75;1.90;;;29.10;99.90;;;;;;5087634;28;20058;-93
2022/06/05 11:15:25;;;;;;;3.17;2.05;;;28.70;99.90;;;;;;5086618;28;20091;-92
2022/06/05 11:18:23;;;;;;;4.05;2.38;;;28.00;99.90;;;;;;5085531;28;20032;-93
2022/06/05 11:21:08;;;;;;;6.95;2.08;;;27.90;99.90;;;;;;5087541;28;20040;-93
2022/06/05 11:23:37;;;;;;;4.25;1.85;;;28.10;99.90;;;;;;5086875;28;20075;-93
2022/06/05 11:26:33;;;;;;;3.53;1.92;;;28.30;99.90;;;;;;5068940;28;20035;-92
2022/06/05 11:29:19;;;;;;;4.20;2.03;;;28.40;99.90;;;;;;5079914;28;20032;-93
2022/06/05 11:31:59;;;;;;;4.75;1.90;;;28.70;99.90;;;;;;5084067;28;20021;-94
2022/06/05 11:34:34;;;;;;;3.33;1.80;;;28.60;99.90;;;;;;5083229;28;20024;-96
2022/06/05 11:37:23;;;;;;;5.18;1.90;;;28.70;99.90;;;;;;5068922;28;20070;-96
2022/06/05 11:40:20;;;;;;;3.22;1.60;;;29.00;99.90;;;;;;5070546;28;20029;-95
2022/06/05 11:42:55;;;;;;;4.20;2.05;;;29.40;99.90;;;;;;5053740;28;20649;-94
2022/06/05 11:45:41;;;;;;;2.05;1.60;;;30.00;99.90;;;;;;5056641;28;20524;-94
2022/06/05 11:48:16;;;;;;;4.85;1.75;;;30.40;99.90;;;;;;5068093;28;20064;-93
2022/06/05 11:50:49;;;;;;;3.42;1.85;;;29.80;99.90;;;;;;5075312;28;20024;-92
2022/06/05 11:53:24;;;;;;;3.22;1.77;;;29.60;99.90;;;;;;5072352;28;20107;-92
2022/06/05 11:55:53;;;;;;;3.03;1.70;;;33.10;99.90;;;;;;5071010;28;20017;-94
2022/06/05 11:58:38;;;;;;;3.97;1.90;;;36.50;99.90;;;;;;5074824;28;20035;-95
2022/06/05 12:01:13;;;;;;;2.45;1.60;;;37.80;99.90;;;;;;5058713;28;20063;-93
2022/06/05 12:03:55;;;;;;;2.05;1.60;;;39.90;99.90;;;;;;5055923;28;20059;-94
2022/06/05 12:06:39;;;;;;;3.15;1.83;;;41.20;99.90;;;;;;5073896;28;20032;-92
2022/06/05 12:09:13;;;;;;;3.85;1.92;;;40.80;99.90;;;;;;5056350;28;20068;-93
2022/06/05 12:12:13;;;;;;;4.18;1.40;;;37.90;99.90;;;;;;5058670;28;20027;-93
2022/06/05 12:15:08;;;;;;;2.28;1.90;;;40.60;99.90;;;;;;5062374;28;20124;-95
2022/06/05 12:17:41;;;;;;;2.65;1.98;;;36.10;99.90;;;;;;5055137;28;20516;-95
2022/06/05 12:20:25;;;;;;;5.15;2.00;;;34.20;99.90;;;;;;5063475;28;20025;-96
2022/06/05 12:23:18;;;;;;;3.25;1.88;;;37.00;99.90;;;;;;5076409;28;20059;-95
2022/06/05 12:34:17;;;;;;;2.85;1.73;;;33.00;99.90;;;;;;5440457;23;20092;-88
2022/06/05 12:37:05;;;;;;;5.35;2.15;;;33.50;99.90;;;;;;4991403;28;20033;-87
2022/06/05 12:39:53;;;;;;;5.18;1.52;;;37.60;99.90;;;;;;4989041;28;20035;-86
2022/06/05 12:42:27;;;;;;;2.65;1.60;;;40.80;99.90;;;;;;4989866;28;20037;-88
2022/06/05 12:44:56;;;;;;;2.38;1.75;;;41.00;99.90;;;;;;4993387;28;20482;-85
2022/06/05 12:47:35;;;;;;;3.13;1.48;;;41.90;99.90;;;;;;4974594;28;20047;-87
2022/06/05 12:50:18;;;;;;;2.33;1.60;;;42.70;99.90;;;;;;4990192;28;20026;-88
2022/06/05 12:53:21;;;;;;;2.63;1.50;;;42.00;99.90;;;;;;4991333;28;20019;-87
2022/06/05 12:55:56;;;;;;;2.90;1.60;;;41.10;99.90;;;;;;4983364;28;20023;-88
2022/06/05 12:58:45;;;;;;;2.15;1.50;;;38.50;99.90;;;;;;4991988;28;20086;-89
2022/06/05 13:01:17;;;;;;;2.92;1.75;;;41.00;99.90;;;;;;4991773;28;20022;-93
2022/06/05 13:03:58;;;;;;;3.97;1.60;;;41.40;99.90;;;;;;4991128;28;20513;-93
2022/06/05 13:06:53;;;;;;;2.28;1.50;;;42.10;99.90;;;;;;4990083;28;20035;-93
2022/06/05 13:09:44;;;;;;;2.25;1.50;;;42.00;99.90;;;;;;4972299;28;20057;-93
2022/06/05 13:12:32;;;;;;;1.77;1.42;;;40.60;99.90;;;;;;4994427;28;20023;-93
2022/06/05 13:15:24;;;;;;;2.50;1.30;;;40.30;99.90;;;;;;4974604;28;20034;-92
2022/06/05 13:17:57;;;;;;;2.53;1.40;;;41.50;99.90;;;;;;4992363;28;20033;-88
2022/06/05 13:20:37;;;;;;;2.75;1.40;;;41.80;99.90;;;;;;4973665;28;20053;-88
2022/06/05 13:23:24;;;;;;;2.75;1.60;;;42.50;99.90;;;;;;4974637;28;20026;-87
2022/06/05 13:26:11;;;;;;;1.88;1.50;;;40.00;99.90;;;;;;4992132;28;20065;-88
2022/06/05 13:28:58;;;;;;;2.83;1.50;;;39.70;99.90;;;;;;4992009;28;20080;-88
2022/06/05 13:31:38;;;;;;;2.70;1.45;;;39.90;99.90;;;;;;4991188;28;20069;-88
2022/06/05 13:34:10;;;;;;;4.82;1.52;;;40.90;99.90;;;;;;4987839;28;20058;-88
2022/06/05 13:36:56;;;;;;;1.73;1.40;;;40.70;99.90;;;;;;4989042;28;20458;-88
2022/06/05 13:39:29;;;;;;;3.05;1.40;;;37.80;99.90;;;;;;4989295;28;20026;-88
2022/06/05 13:42:10;;;;;;;2.25;1.50;;;37.10;99.90;;;;;;4974761;28;20085;-86
2022/06/05 13:44:37;;;;;;;4.18;1.60;;;37.00;99.90;;;;;;4989783;28;20030;-88
2022/06/05 13:47:12;;;;;;;3.70;1.48;;;35.30;99.90;;;;;;4989266;28;20049;-88
2022/06/05 13:50:01;;;;;;;1.90;1.67;;;34.50;99.90;;;;;;4990318;28;20018;-88
2022/06/05 13:52:42;;;;;;;3.22;1.50;;;34.10;99.90;;;;;;4988757;28;20499;-86